createdAt,value
2022-12-22T00:00:34.978Z,981.38
2022-12-22T00:01:34.990Z,981.38
2022-12-22T00:02:35.182Z,981.36
2022-12-22T00:03:35.087Z,981.34
2022-12-22T00:04:34.877Z,981.33
2022-12-22T00:05:34.917Z,981.26
2022-12-22T00:06:34.918Z,981.28
2022-12-22T00:07:34.849Z,981.33
2022-12-22T00:08:34.876Z,981.30
2022-12-22T00:09:34.902Z,981.20
2022-12-22T00:10:34.850Z,981.24
2022-12-22T00:11:34.809Z,981.22
2022-12-22T00:12:34.821Z,981.16
2022-12-22T00:13:34.804Z,981.19
2022-12-22T00:14:34.830Z,981.16
2022-12-22T00:15:34.810Z,981.12
2022-12-22T00:16:34.833Z,981.19
2022-12-22T00:17:34.742Z,981.03
2022-12-22T00:18:34.774Z,980.99
2022-12-22T00:19:34.754Z,981.03
2022-12-22T00:20:34.727Z,981.04
2022-12-22T00:21:34.693Z,981.11
2022-12-22T00:22:34.702Z,981.05
2022-12-22T00:23:34.726Z,981.01
2022-12-22T00:24:34.694Z,981.02
2022-12-22T00:25:34.676Z,981.02
2022-12-22T00:26:34.683Z,980.99
2022-12-22T00:27:34.675Z,980.93
2022-12-22T00:28:34.629Z,980.88
2022-12-22T00:29:34.656Z,980.86
2022-12-22T00:30:34.664Z,980.87
2022-12-22T00:31:34.613Z,980.88
2022-12-22T00:32:34.604Z,980.83
2022-12-22T00:33:34.605Z,980.76
2022-12-22T00:34:34.602Z,980.70
2022-12-22T00:35:34.580Z,980.71
2022-12-22T00:36:34.585Z,980.63
2022-12-22T00:37:34.567Z,980.63
2022-12-22T00:38:34.539Z,980.75
2022-12-22T00:39:34.580Z,980.72
2022-12-22T00:40:34.532Z,980.72
2022-12-22T00:41:34.491Z,980.75
2022-12-22T00:42:34.493Z,980.67
2022-12-22T00:43:34.505Z,980.74
2022-12-22T00:44:34.448Z,980.64
2022-12-22T00:45:34.521Z,980.72
2022-12-22T00:46:34.488Z,980.71
2022-12-22T00:47:34.440Z,980.64
2022-12-22T00:48:34.437Z,980.66
2022-12-22T00:49:34.451Z,980.69
2022-12-22T00:50:34.432Z,980.62
2022-12-22T00:51:34.385Z,980.62
2022-12-22T00:52:34.396Z,980.62
2022-12-22T00:53:34.420Z,980.62
2022-12-22T00:54:34.382Z,980.60
2022-12-22T00:55:34.363Z,980.59
2022-12-22T00:56:34.353Z,980.57
2022-12-22T00:57:34.375Z,980.58
2022-12-22T00:58:34.338Z,980.59
2022-12-22T00:59:34.343Z,980.53
2022-12-22T01:00:34.332Z,980.49
2022-12-22T01:01:34.387Z,980.54
2022-12-22T01:02:34.530Z,980.48
2022-12-22T01:03:34.518Z,980.48
2022-12-22T01:04:34.260Z,980.49
2022-12-22T01:05:34.248Z,980.50
2022-12-22T01:06:34.238Z,980.42
2022-12-22T01:07:34.301Z,980.42
2022-12-22T01:08:34.208Z,980.39
2022-12-22T01:09:34.235Z,980.34
2022-12-22T01:10:34.209Z,980.36
2022-12-22T01:11:34.199Z,980.30
2022-12-22T01:12:34.222Z,980.30
2022-12-22T01:13:34.194Z,980.32
2022-12-22T01:14:34.161Z,980.36
2022-12-22T01:15:34.211Z,980.34
2022-12-22T01:16:34.235Z,980.32
2022-12-22T01:17:34.108Z,980.33
2022-12-22T01:19:06.164Z,980.31
2022-12-22T01:19:34.139Z,980.30
2022-12-22T01:20:34.104Z,980.32
2022-12-22T01:21:34.112Z,980.24
2022-12-22T01:22:34.093Z,980.22
2022-12-22T01:23:34.073Z,980.22
2022-12-22T01:24:34.075Z,980.18
2022-12-22T01:25:34.061Z,980.21
2022-12-22T01:26:34.062Z,980.24
2022-12-22T01:27:34.040Z,980.19
2022-12-22T01:28:34.015Z,980.23
2022-12-22T01:29:34.026Z,980.18
2022-12-22T01:30:34.040Z,980.20
2022-12-22T01:31:33.998Z,980.17
2022-12-22T01:32:33.975Z,980.13
2022-12-22T01:33:33.950Z,980.12
2022-12-22T01:34:33.964Z,980.12
2022-12-22T01:35:33.985Z,980.05
2022-12-22T01:36:33.938Z,980.06
2022-12-22T01:37:33.924Z,980.09
2022-12-22T01:38:33.899Z,980.09
2022-12-22T01:39:33.915Z,980.07
2022-12-22T01:40:33.915Z,980.01
2022-12-22T01:41:33.884Z,980.05
2022-12-22T01:42:33.896Z,980.02
2022-12-22T01:43:33.849Z,980.01
2022-12-22T01:44:33.843Z,980.06
2022-12-22T01:45:33.836Z,979.95
2022-12-22T01:46:33.935Z,979.91
2022-12-22T01:47:33.811Z,979.99
2022-12-22T01:48:33.809Z,979.86
2022-12-22T01:49:33.812Z,979.89
2022-12-22T01:50:33.776Z,979.88
2022-12-22T01:51:33.817Z,979.90
2022-12-22T01:52:33.749Z,979.85
2022-12-22T01:53:33.756Z,979.86
2022-12-22T01:54:33.747Z,979.88
2022-12-22T01:55:33.752Z,979.77
2022-12-22T01:56:33.711Z,979.71
2022-12-22T01:57:33.701Z,979.71
2022-12-22T01:58:33.679Z,979.68
2022-12-22T01:59:33.808Z,979.74
2022-12-22T02:00:33.682Z,979.67
2022-12-22T02:01:33.758Z,979.75
2022-12-22T02:02:33.853Z,979.69
2022-12-22T02:03:33.669Z,979.70
2022-12-22T02:04:33.645Z,979.71
2022-12-22T02:05:33.637Z,979.81
2022-12-22T02:06:33.607Z,979.67
2022-12-22T02:07:33.587Z,979.71
2022-12-22T02:08:33.598Z,979.65
2022-12-22T02:09:33.592Z,979.61
2022-12-22T02:10:33.576Z,979.58
2022-12-22T02:11:33.558Z,979.58
2022-12-22T02:12:33.589Z,979.57
2022-12-22T02:13:33.524Z,979.55
2022-12-22T02:14:33.562Z,979.55
2022-12-22T02:15:33.568Z,979.54
2022-12-22T02:16:33.622Z,979.43
2022-12-22T02:17:33.547Z,979.46
2022-12-22T02:18:33.514Z,979.45
2022-12-22T02:19:33.468Z,979.45
2022-12-22T02:20:33.481Z,979.43
2022-12-22T02:21:33.464Z,979.42
2022-12-22T02:22:33.448Z,979.42
2022-12-22T02:23:33.473Z,979.42
2022-12-22T02:24:33.408Z,979.45
2022-12-22T02:25:33.421Z,979.40
2022-12-22T02:26:33.401Z,979.40
2022-12-22T02:27:33.406Z,979.40
2022-12-22T02:28:33.393Z,979.35
2022-12-22T02:29:33.364Z,979.35
2022-12-22T02:30:33.349Z,979.37
2022-12-22T02:31:33.371Z,979.38
2022-12-22T02:32:33.363Z,979.33
2022-12-22T02:33:33.319Z,979.32
2022-12-22T02:34:33.311Z,979.32
2022-12-22T02:35:33.313Z,979.25
2022-12-22T02:36:33.301Z,979.24
2022-12-22T02:37:33.298Z,979.35
2022-12-22T02:38:33.273Z,979.26
2022-12-22T02:39:33.282Z,979.21
2022-12-22T02:40:38.986Z,979.28
2022-12-22T02:41:35.226Z,979.27
2022-12-22T02:42:33.205Z,979.16
2022-12-22T02:43:34.202Z,979.22
2022-12-22T02:44:33.212Z,979.19
2022-12-22T02:45:33.190Z,979.21
2022-12-22T02:46:33.281Z,979.20
2022-12-22T02:47:33.181Z,979.13
2022-12-22T02:48:33.157Z,979.12
2022-12-22T02:49:33.131Z,979.07
2022-12-22T02:50:33.137Z,979.10
2022-12-22T02:51:33.133Z,979.06
2022-12-22T02:52:33.146Z,979.07
2022-12-22T02:53:33.120Z,979.04
2022-12-22T02:54:33.094Z,979.02
2022-12-22T02:55:33.062Z,979.03
2022-12-22T02:56:33.065Z,979.02
2022-12-22T02:57:34.070Z,978.99
2022-12-22T02:58:33.080Z,978.93
2022-12-22T02:59:33.044Z,978.94
2022-12-22T03:00:33.053Z,978.95
2022-12-22T03:01:33.220Z,978.94
2022-12-22T03:02:33.186Z,978.90
2022-12-22T03:03:33.289Z,978.90
2022-12-22T03:04:32.978Z,978.86
2022-12-22T03:05:32.979Z,978.97
2022-12-22T03:06:32.977Z,978.93
2022-12-22T03:07:32.942Z,978.88
2022-12-22T03:08:32.929Z,978.89
2022-12-22T03:09:32.964Z,978.85
2022-12-22T03:10:32.908Z,978.83
2022-12-22T03:11:32.894Z,978.78
2022-12-22T03:12:32.892Z,978.82
2022-12-22T03:13:32.937Z,978.84
2022-12-22T03:14:32.886Z,978.82
2022-12-22T03:15:32.851Z,978.79
2022-12-22T03:16:32.903Z,978.83
2022-12-22T03:17:32.856Z,978.75
2022-12-22T03:18:32.847Z,978.72
2022-12-22T03:19:32.828Z,978.79
2022-12-22T03:20:32.821Z,978.70
2022-12-22T03:21:32.838Z,978.57
2022-12-22T03:22:32.788Z,978.67
2022-12-22T03:23:32.795Z,978.64
2022-12-22T03:24:32.752Z,978.65
2022-12-22T03:25:32.745Z,978.68
2022-12-22T03:26:32.755Z,978.66
2022-12-22T03:27:32.755Z,978.61
2022-12-22T03:28:32.721Z,978.59
2022-12-22T03:29:32.725Z,978.57
2022-12-22T03:30:32.766Z,978.54
2022-12-22T03:31:32.764Z,978.59
2022-12-22T03:32:32.677Z,978.52
2022-12-22T03:33:32.665Z,978.51
2022-12-22T03:34:32.715Z,978.54
2022-12-22T03:35:32.647Z,978.50
2022-12-22T03:36:32.680Z,978.42
2022-12-22T03:37:32.653Z,978.41
2022-12-22T03:38:32.608Z,978.39
2022-12-22T03:39:32.615Z,978.48
2022-12-22T03:40:32.622Z,978.42
2022-12-22T03:41:32.553Z,978.39
2022-12-22T03:42:32.611Z,978.35
2022-12-22T03:43:32.549Z,978.38
2022-12-22T03:44:32.551Z,978.34
2022-12-22T03:45:32.544Z,978.37
2022-12-22T03:46:32.572Z,978.36
2022-12-22T03:47:32.501Z,978.30
2022-12-22T03:48:32.504Z,978.30
2022-12-22T03:49:32.553Z,978.27
2022-12-22T03:50:32.516Z,978.32
2022-12-22T03:51:32.478Z,978.26
2022-12-22T03:52:32.530Z,978.29
2022-12-22T03:53:32.502Z,978.23
2022-12-22T03:54:32.419Z,978.27
2022-12-22T03:55:32.438Z,978.20
2022-12-22T03:56:32.423Z,978.17
2022-12-22T03:57:32.460Z,978.16
2022-12-22T03:58:32.400Z,978.16
2022-12-22T03:59:32.379Z,978.11
2022-12-22T04:00:32.389Z,978.15
2022-12-22T04:01:32.543Z,978.14
2022-12-22T04:02:32.411Z,978.18
2022-12-22T04:03:32.397Z,978.19
2022-12-22T04:04:32.336Z,978.16
2022-12-22T04:05:32.335Z,978.07
2022-12-22T04:06:32.308Z,978.09
2022-12-22T04:07:32.315Z,978.11
2022-12-22T04:08:32.279Z,978.10
2022-12-22T04:09:32.279Z,978.17
2022-12-22T04:10:32.265Z,978.06
2022-12-22T04:11:32.225Z,978.07
2022-12-22T04:12:32.328Z,977.99
2022-12-22T04:13:32.229Z,978.08
2022-12-22T04:14:34.769Z,978.06
2022-12-22T04:15:33.269Z,978.01
2022-12-22T04:16:32.233Z,978.09
2022-12-22T04:17:32.168Z,978.09
2022-12-22T04:18:32.226Z,978.07
2022-12-22T04:19:32.138Z,978.02
2022-12-22T04:20:32.131Z,978.00
2022-12-22T04:21:32.144Z,977.95
2022-12-22T04:22:32.120Z,977.97
2022-12-22T04:23:32.090Z,977.96
2022-12-22T04:24:32.103Z,977.93
2022-12-22T04:25:32.088Z,977.96
2022-12-22T04:26:32.097Z,977.93
2022-12-22T04:27:32.050Z,977.99
2022-12-22T04:28:32.105Z,977.95
2022-12-22T04:29:32.043Z,977.88
2022-12-22T04:30:32.074Z,977.88
2022-12-22T04:31:32.099Z,977.90
2022-12-22T04:32:32.030Z,977.83
2022-12-22T04:33:31.998Z,977.78
2022-12-22T04:34:31.998Z,977.74
2022-12-22T04:35:31.998Z,977.74
2022-12-22T04:36:31.990Z,977.74
2022-12-22T04:37:31.963Z,977.76
2022-12-22T04:38:31.975Z,977.79
2022-12-22T04:39:31.936Z,977.76
2022-12-22T04:40:31.918Z,977.76
2022-12-22T04:41:31.919Z,977.72
2022-12-22T04:42:31.923Z,977.73
2022-12-22T04:43:32.884Z,977.76
2022-12-22T04:44:31.915Z,977.71
2022-12-22T04:45:31.924Z,977.67
2022-12-22T04:46:31.899Z,977.61
2022-12-22T04:47:31.866Z,977.71
2022-12-22T04:48:31.832Z,977.61
2022-12-22T04:49:31.854Z,977.58
2022-12-22T04:50:31.832Z,977.63
2022-12-22T04:51:31.790Z,977.55
2022-12-22T04:52:31.849Z,977.59
2022-12-22T04:53:31.798Z,977.59
2022-12-22T04:54:31.805Z,977.57
2022-12-22T04:55:31.805Z,977.58
2022-12-22T04:56:31.757Z,977.50
2022-12-22T04:57:35.412Z,977.50
2022-12-22T04:58:33.736Z,977.48
2022-12-22T04:59:31.740Z,977.43
2022-12-22T05:00:31.706Z,977.39
2022-12-22T05:01:31.754Z,977.38
2022-12-22T05:02:31.841Z,977.37
2022-12-22T05:03:31.793Z,977.35
2022-12-22T05:04:31.675Z,977.35
2022-12-22T05:05:31.672Z,977.33
2022-12-22T05:06:31.659Z,977.32
2022-12-22T05:07:31.669Z,977.32
2022-12-22T05:08:31.673Z,977.28
2022-12-22T05:09:31.629Z,977.32
2022-12-22T05:10:31.607Z,977.28
2022-12-22T05:11:31.613Z,977.28
2022-12-22T05:12:31.599Z,977.26
2022-12-22T05:13:31.575Z,977.22
2022-12-22T05:14:31.617Z,977.29
2022-12-22T05:15:31.558Z,977.25
2022-12-22T05:16:31.561Z,977.29
2022-12-22T05:17:31.559Z,977.19
2022-12-22T05:18:31.537Z,977.19
2022-12-22T05:19:31.539Z,977.24
2022-12-22T05:20:31.514Z,977.20
2022-12-22T05:21:31.490Z,977.18
2022-12-22T05:22:31.464Z,977.18
2022-12-22T05:23:31.487Z,977.18
2022-12-22T05:24:31.471Z,977.13
2022-12-22T05:25:35.094Z,977.08
2022-12-22T05:26:32.445Z,976.99
2022-12-22T05:27:31.409Z,977.07
2022-12-22T05:28:31.411Z,977.04
2022-12-22T05:29:31.409Z,977.04
2022-12-22T05:30:31.402Z,977.06
2022-12-22T05:31:31.418Z,976.94
2022-12-22T05:32:31.371Z,977.02
2022-12-22T05:33:31.374Z,976.98
2022-12-22T05:34:31.371Z,976.97
2022-12-22T05:35:31.360Z,976.95
2022-12-22T05:36:31.367Z,976.94
2022-12-22T05:37:31.310Z,976.97
2022-12-22T05:38:31.340Z,976.96
2022-12-22T05:39:31.358Z,976.95
2022-12-22T05:40:31.314Z,976.88
2022-12-22T05:41:31.311Z,976.88
2022-12-22T05:42:31.253Z,976.94
2022-12-22T05:43:31.266Z,976.91
2022-12-22T05:44:31.268Z,976.94
2022-12-22T05:45:31.269Z,976.91
2022-12-22T05:46:31.238Z,976.91
2022-12-22T05:47:31.229Z,976.91
2022-12-22T05:48:36.943Z,976.86
2022-12-22T05:49:33.201Z,976.88
2022-12-22T05:50:31.226Z,976.85
2022-12-22T05:51:31.196Z,976.83
2022-12-22T05:52:31.178Z,976.82
2022-12-22T05:53:31.214Z,976.79
2022-12-22T05:54:31.153Z,976.75
2022-12-22T05:55:31.160Z,976.80
2022-12-22T05:56:31.107Z,976.74
2022-12-22T05:57:31.178Z,976.77
2022-12-22T05:58:31.081Z,976.73
2022-12-22T05:59:31.081Z,976.74
2022-12-22T06:00:31.110Z,976.68
2022-12-22T06:01:31.169Z,976.73
2022-12-22T06:02:31.151Z,976.65
2022-12-22T06:03:31.187Z,976.60
2022-12-22T06:04:31.087Z,976.57
2022-12-22T06:05:31.054Z,976.57
2022-12-22T06:06:31.022Z,976.62
2022-12-22T06:07:31.076Z,976.59
2022-12-22T06:08:31.009Z,976.59
2022-12-22T06:09:30.964Z,976.66
2022-12-22T06:10:30.983Z,976.62
2022-12-22T06:11:30.945Z,976.59
2022-12-22T06:12:30.942Z,976.59
2022-12-22T06:13:30.980Z,976.62
2022-12-22T06:14:30.905Z,976.59
2022-12-22T06:15:30.959Z,976.61
2022-12-22T06:16:30.921Z,976.58
2022-12-22T06:17:30.896Z,976.71
2022-12-22T06:18:30.921Z,976.56
2022-12-22T06:19:30.869Z,976.55
2022-12-22T06:20:30.833Z,976.51
2022-12-22T06:21:30.865Z,976.56
2022-12-22T06:22:30.888Z,976.52
2022-12-22T06:23:30.828Z,976.46
2022-12-22T06:24:30.803Z,976.49
2022-12-22T06:25:30.783Z,976.41
2022-12-22T06:26:30.825Z,976.42
2022-12-22T06:27:30.763Z,976.40
2022-12-22T06:28:30.774Z,976.37
2022-12-22T06:29:30.758Z,976.42
2022-12-22T06:30:33.539Z,976.32
2022-12-22T06:31:31.883Z,976.34
2022-12-22T06:32:30.724Z,976.37
2022-12-22T06:33:30.715Z,976.37
2022-12-22T06:34:30.676Z,976.38
2022-12-22T06:35:30.693Z,976.27
2022-12-22T06:36:30.673Z,976.33
2022-12-22T06:37:30.677Z,976.32
2022-12-22T06:38:30.665Z,976.33
2022-12-22T06:39:30.683Z,976.34
2022-12-22T06:40:30.653Z,976.34
2022-12-22T06:41:30.619Z,976.31
2022-12-22T06:42:30.617Z,976.29
2022-12-22T06:43:30.656Z,976.30
2022-12-22T06:44:30.581Z,976.27
2022-12-22T06:45:30.583Z,976.34
2022-12-22T06:46:30.647Z,976.33
2022-12-22T06:47:30.584Z,976.34
2022-12-22T06:48:30.598Z,976.35
2022-12-22T06:49:30.572Z,976.31
2022-12-22T06:50:30.544Z,976.24
2022-12-22T06:51:30.538Z,976.31
2022-12-22T06:52:30.524Z,976.28
2022-12-22T06:53:30.523Z,976.25
2022-12-22T06:54:30.535Z,976.26
2022-12-22T06:55:30.500Z,976.24
2022-12-22T06:56:30.492Z,976.32
2022-12-22T06:57:30.477Z,976.28
2022-12-22T06:58:30.465Z,976.23
2022-12-22T06:59:30.433Z,976.19
2022-12-22T07:00:30.469Z,976.26
2022-12-22T07:01:30.609Z,976.33
2022-12-22T07:02:30.633Z,976.27
2022-12-22T07:03:30.506Z,976.29
2022-12-22T07:04:30.387Z,976.25
2022-12-22T07:05:30.423Z,976.26
2022-12-22T07:06:30.369Z,976.29
2022-12-22T07:07:30.401Z,976.35
2022-12-22T07:08:30.347Z,976.29
2022-12-22T07:09:30.363Z,976.32
2022-12-22T07:10:30.324Z,976.37
2022-12-22T07:11:30.326Z,976.37
2022-12-22T07:12:30.320Z,976.41
2022-12-22T07:13:30.304Z,976.34
2022-12-22T07:14:30.275Z,976.28
2022-12-22T07:15:30.267Z,976.24
2022-12-22T07:16:30.322Z,976.26
2022-12-22T07:17:30.244Z,976.31
2022-12-22T07:18:30.288Z,976.31
2022-12-22T07:19:30.229Z,976.32
2022-12-22T07:20:30.240Z,976.29
2022-12-22T07:21:30.221Z,976.25
2022-12-22T07:22:31.086Z,976.23
2022-12-22T07:23:31.175Z,976.25
2022-12-22T07:24:30.179Z,976.32
2022-12-22T07:25:30.189Z,976.28
2022-12-22T07:26:30.165Z,976.23
2022-12-22T07:27:30.140Z,976.26
2022-12-22T07:28:30.151Z,976.24
2022-12-22T07:29:30.130Z,976.23
2022-12-22T07:30:30.136Z,976.18
2022-12-22T07:31:30.180Z,976.23
2022-12-22T07:32:30.110Z,976.22
2022-12-22T07:33:30.076Z,976.17
2022-12-22T07:34:30.073Z,976.20
2022-12-22T07:35:30.061Z,976.17
2022-12-22T07:36:30.066Z,976.20
2022-12-22T07:37:30.046Z,976.21
2022-12-22T07:38:30.009Z,976.12
2022-12-22T07:39:30.065Z,976.16
2022-12-22T07:40:29.994Z,976.14
2022-12-22T07:41:30.054Z,976.11
2022-12-22T07:42:29.989Z,975.99
2022-12-22T07:43:29.995Z,976.03
2022-12-22T07:44:29.959Z,975.98
2022-12-22T07:45:29.964Z,976.07
2022-12-22T07:46:30.006Z,976.02
2022-12-22T07:47:34.943Z,975.98
2022-12-22T07:48:31.916Z,975.94
2022-12-22T07:49:29.957Z,975.99
2022-12-22T07:50:29.911Z,976.01
2022-12-22T07:51:29.867Z,975.93
2022-12-22T07:52:29.915Z,975.95
2022-12-22T07:53:29.849Z,975.99
2022-12-22T07:54:29.891Z,975.98
2022-12-22T07:55:29.852Z,976.00
2022-12-22T07:56:29.827Z,975.94
2022-12-22T07:57:29.815Z,975.92
2022-12-22T07:58:29.834Z,975.84
2022-12-22T07:59:29.839Z,975.87
2022-12-22T08:00:29.818Z,975.87
2022-12-22T08:01:29.875Z,975.81
2022-12-22T08:02:35.242Z,975.82
2022-12-22T08:03:31.785Z,975.85
2022-12-22T08:04:29.819Z,975.87
2022-12-22T08:05:29.753Z,975.85
2022-12-22T08:06:29.714Z,975.90
2022-12-22T08:07:29.684Z,975.92
2022-12-22T08:08:29.689Z,975.92
2022-12-22T08:09:29.704Z,975.95
2022-12-22T08:10:29.674Z,975.89
2022-12-22T08:11:29.661Z,975.92
2022-12-22T08:12:29.883Z,975.90
2022-12-22T08:13:29.660Z,975.93
2022-12-22T08:14:29.686Z,975.92
2022-12-22T08:15:29.615Z,975.89
2022-12-22T08:16:29.730Z,975.87
2022-12-22T08:17:29.597Z,975.90
2022-12-22T08:18:29.607Z,975.83
2022-12-22T08:19:29.659Z,975.81
2022-12-22T08:20:29.656Z,975.84
2022-12-22T08:21:29.542Z,975.84
2022-12-22T08:22:29.606Z,975.80
2022-12-22T08:23:29.551Z,975.78
2022-12-22T08:24:29.518Z,975.81
2022-12-22T08:25:29.549Z,975.79
2022-12-22T08:26:29.545Z,975.79
2022-12-22T08:27:29.494Z,975.90
2022-12-22T08:28:29.511Z,975.84
2022-12-22T08:29:29.477Z,975.82
2022-12-22T08:30:29.462Z,975.85
2022-12-22T08:31:29.557Z,975.80
2022-12-22T08:32:29.483Z,975.84
2022-12-22T08:33:29.424Z,975.83
2022-12-22T08:34:29.415Z,975.85
2022-12-22T08:35:29.470Z,975.85
2022-12-22T08:36:29.387Z,975.80
2022-12-22T08:37:29.405Z,975.76
2022-12-22T08:38:29.378Z,975.78
2022-12-22T08:39:29.445Z,975.77
2022-12-22T08:40:29.370Z,975.76
2022-12-22T08:41:29.409Z,975.73
2022-12-22T08:42:29.403Z,975.72
2022-12-22T08:43:29.341Z,975.75
2022-12-22T08:44:29.368Z,975.68
2022-12-22T08:45:29.302Z,975.69
2022-12-22T08:46:29.365Z,975.75
2022-12-22T08:47:29.335Z,975.77
2022-12-22T08:48:29.308Z,975.73
2022-12-22T08:49:29.293Z,975.76
2022-12-22T08:50:29.240Z,975.81
2022-12-22T08:51:29.305Z,975.82
2022-12-22T08:52:29.241Z,975.79
2022-12-22T08:54:03.430Z,975.74
2022-12-22T08:54:31.229Z,975.81
2022-12-22T08:55:29.201Z,975.78
2022-12-22T08:56:29.206Z,975.82
2022-12-22T08:57:29.238Z,975.85
2022-12-22T08:58:29.151Z,975.85
2022-12-22T08:59:29.174Z,975.86
2022-12-22T09:00:29.271Z,975.78
2022-12-22T09:01:29.302Z,975.85
2022-12-22T09:02:29.291Z,975.79
2022-12-22T09:03:29.140Z,975.85
2022-12-22T09:04:29.097Z,975.85
2022-12-22T09:05:29.120Z,975.84
2022-12-22T09:06:34.601Z,975.88
2022-12-22T09:07:30.085Z,975.90
2022-12-22T09:08:29.094Z,975.82
2022-12-22T09:09:29.037Z,975.96
2022-12-22T09:10:29.043Z,975.92
2022-12-22T09:11:29.016Z,975.86
2022-12-22T09:12:29.064Z,975.91
2022-12-22T09:13:29.009Z,975.92
2022-12-22T09:14:29.006Z,975.88
2022-12-22T09:15:28.995Z,975.94
2022-12-22T09:16:29.048Z,975.95
2022-12-22T09:17:28.967Z,975.93
2022-12-22T09:18:28.966Z,976.03
2022-12-22T09:19:28.957Z,975.98
2022-12-22T09:20:28.925Z,976.07
2022-12-22T09:21:28.961Z,976.04
2022-12-22T09:22:29.065Z,976.07
2022-12-22T09:23:28.875Z,976.04
2022-12-22T09:24:28.915Z,976.11
2022-12-22T09:25:28.890Z,976.14
2022-12-22T09:26:28.865Z,976.17
2022-12-22T09:27:28.858Z,976.16
2022-12-22T09:28:28.862Z,976.13
2022-12-22T09:29:28.857Z,976.19
2022-12-22T09:30:28.821Z,976.11
2022-12-22T09:31:28.884Z,976.20
2022-12-22T09:32:28.798Z,976.15
2022-12-22T09:33:28.767Z,976.17
2022-12-22T09:34:28.815Z,976.21
2022-12-22T09:35:28.761Z,976.24
2022-12-22T09:36:29.778Z,976.24
2022-12-22T09:37:28.742Z,976.28
2022-12-22T09:38:28.742Z,976.28
2022-12-22T09:39:29.614Z,976.29
2022-12-22T09:40:29.752Z,976.31
2022-12-22T09:41:28.736Z,976.29
2022-12-22T09:42:28.729Z,976.31
2022-12-22T09:43:28.689Z,976.31
2022-12-22T09:44:28.668Z,976.32
2022-12-22T09:45:28.689Z,976.28
2022-12-22T09:46:28.784Z,976.31
2022-12-22T09:47:28.616Z,976.30
2022-12-22T09:48:28.615Z,976.35
2022-12-22T09:49:28.625Z,976.32
2022-12-22T09:50:28.638Z,976.35
2022-12-22T09:51:29.620Z,976.34
2022-12-22T09:52:28.598Z,976.39
2022-12-22T09:53:28.584Z,976.39
2022-12-22T09:54:28.592Z,976.41
2022-12-22T09:55:28.564Z,976.40
2022-12-22T09:56:28.553Z,976.46
2022-12-22T09:57:28.565Z,976.44
2022-12-22T09:58:28.540Z,976.41
2022-12-22T09:59:28.545Z,976.47
2022-12-22T10:00:28.530Z,976.46
2022-12-22T10:01:28.541Z,976.48
2022-12-22T10:02:28.583Z,976.50
2022-12-22T10:03:28.492Z,976.56
2022-12-22T10:04:28.493Z,976.60
2022-12-22T10:05:28.677Z,976.55
2022-12-22T10:06:28.430Z,976.61
2022-12-22T10:07:28.446Z,976.61
2022-12-22T10:08:28.400Z,976.63
2022-12-22T10:09:48.758Z,976.64
2022-12-22T10:10:30.478Z,976.69
2022-12-22T10:11:28.371Z,976.65
2022-12-22T10:12:28.494Z,976.56
2022-12-22T10:13:28.366Z,976.62
2022-12-22T10:14:28.396Z,976.55
2022-12-22T10:15:28.454Z,976.66
2022-12-22T10:16:28.374Z,976.66
2022-12-22T10:17:28.389Z,976.66
2022-12-22T10:18:28.356Z,976.68
2022-12-22T10:19:28.317Z,976.68
2022-12-22T10:20:28.404Z,976.66
2022-12-22T10:21:28.274Z,976.67
2022-12-22T10:22:28.255Z,976.71
2022-12-22T10:23:28.330Z,976.77
2022-12-22T10:24:28.228Z,976.76
2022-12-22T10:25:29.036Z,976.82
2022-12-22T10:26:31.139Z,976.84
2022-12-22T10:27:29.644Z,976.91
2022-12-22T10:28:28.227Z,976.92
2022-12-22T10:29:28.229Z,976.94
2022-12-22T10:30:28.227Z,976.95
2022-12-22T10:31:28.217Z,977.04
2022-12-22T10:32:28.256Z,976.97
2022-12-22T10:33:28.216Z,977.03
2022-12-22T10:34:28.185Z,977.03
2022-12-22T10:35:28.193Z,977.12
2022-12-22T10:36:28.129Z,977.17
2022-12-22T10:37:28.117Z,977.14
2022-12-22T10:38:28.140Z,977.20
2022-12-22T10:39:28.094Z,977.23
2022-12-22T10:40:28.086Z,977.27
2022-12-22T10:41:28.114Z,977.22
2022-12-22T10:42:28.055Z,977.31
2022-12-22T10:43:28.072Z,977.37
2022-12-22T10:44:28.073Z,977.31
2022-12-22T10:45:28.013Z,977.25
2022-12-22T10:46:28.071Z,977.27
2022-12-22T10:47:28.020Z,977.34
2022-12-22T10:48:27.987Z,977.32
2022-12-22T10:49:27.969Z,977.31
2022-12-22T10:50:27.968Z,977.31
2022-12-22T10:51:27.981Z,977.40
2022-12-22T10:52:30.839Z,977.41
2022-12-22T10:53:28.949Z,977.49
2022-12-22T10:54:27.962Z,977.47
2022-12-22T10:55:27.895Z,977.57
2022-12-22T10:56:27.898Z,977.60
2022-12-22T10:57:27.929Z,977.62
2022-12-22T10:58:27.881Z,977.56
2022-12-22T10:59:27.873Z,977.62
2022-12-22T11:00:27.907Z,977.54
2022-12-22T11:01:27.968Z,977.59
2022-12-22T11:02:28.126Z,977.57
2022-12-22T11:03:28.057Z,977.64
2022-12-22T11:04:27.851Z,977.57
2022-12-22T11:05:27.808Z,977.57
2022-12-22T11:06:27.802Z,977.54
2022-12-22T11:07:27.822Z,977.60
2022-12-22T11:08:27.765Z,977.56
2022-12-22T11:09:35.663Z,977.62
2022-12-22T11:10:29.814Z,977.58
2022-12-22T11:11:27.728Z,977.68
2022-12-22T11:12:27.730Z,977.70
2022-12-22T11:13:27.732Z,977.73
2022-12-22T11:14:27.721Z,977.72
2022-12-22T11:15:27.706Z,977.73
2022-12-22T11:16:27.724Z,977.70
2022-12-22T11:17:27.684Z,977.72
2022-12-22T11:18:27.681Z,977.77
2022-12-22T11:19:27.684Z,977.77
2022-12-22T11:20:27.648Z,977.80
2022-12-22T11:21:27.639Z,977.79
2022-12-22T11:22:27.616Z,977.87
2022-12-22T11:23:27.661Z,977.89
2022-12-22T11:24:27.625Z,977.98
2022-12-22T11:25:27.599Z,977.91
2022-12-22T11:26:27.600Z,977.98
2022-12-22T11:27:27.591Z,977.95
2022-12-22T11:28:27.569Z,977.99
2022-12-22T11:29:27.551Z,977.91
2022-12-22T11:30:27.543Z,977.96
2022-12-22T11:31:27.638Z,977.97
2022-12-22T11:32:27.525Z,977.91
2022-12-22T11:33:27.535Z,977.93
2022-12-22T11:34:27.591Z,977.98
2022-12-22T11:35:27.475Z,977.98
2022-12-22T11:36:27.469Z,977.92
2022-12-22T11:37:27.462Z,977.94
2022-12-22T11:38:27.513Z,978.00
2022-12-22T11:39:27.448Z,978.00
2022-12-22T11:40:27.439Z,977.98
2022-12-22T11:41:27.478Z,977.99
2022-12-22T11:42:27.422Z,978.00
2022-12-22T11:43:27.417Z,978.01
2022-12-22T11:44:27.385Z,978.06
2022-12-22T11:45:27.471Z,978.07
2022-12-22T11:46:27.456Z,978.11
2022-12-22T11:47:27.364Z,978.07
2022-12-22T11:48:27.348Z,978.02
2022-12-22T11:49:27.408Z,978.02
2022-12-22T11:51:01.568Z,978.03
2022-12-22T11:51:28.608Z,978.00
2022-12-22T11:52:28.335Z,978.09
2022-12-22T11:53:27.293Z,978.11
2022-12-22T11:54:27.284Z,978.17
2022-12-22T11:55:27.339Z,978.12
2022-12-22T11:56:27.269Z,978.03
2022-12-22T11:57:27.240Z,978.08
2022-12-22T11:58:27.272Z,978.07
2022-12-22T11:59:27.257Z,978.06
2022-12-22T12:00:55.726Z,978.17
2022-12-22T12:01:29.268Z,978.19
2022-12-22T12:02:27.287Z,978.19
2022-12-22T12:03:27.302Z,978.28
2022-12-22T12:04:27.273Z,978.26
2022-12-22T12:05:27.204Z,978.28
2022-12-22T12:06:27.146Z,978.32
2022-12-22T12:07:27.222Z,978.40
2022-12-22T12:08:27.163Z,978.39
2022-12-22T12:09:27.112Z,978.45
2022-12-22T12:10:27.119Z,978.45
2022-12-22T12:11:27.124Z,978.43
2022-12-22T12:12:27.099Z,978.47
2022-12-22T12:13:33.151Z,978.46
2022-12-22T12:14:29.138Z,978.59
2022-12-22T12:15:27.045Z,978.61
2022-12-22T12:16:27.073Z,978.58
2022-12-22T12:17:27.075Z,978.70
2022-12-22T12:18:27.021Z,978.70
2022-12-22T12:19:28.542Z,978.72
2022-12-22T12:20:28.036Z,978.66
2022-12-22T12:21:27.005Z,978.69
2022-12-22T12:22:26.966Z,978.68
2022-12-22T12:23:27.029Z,978.71
2022-12-22T12:24:26.963Z,978.77
2022-12-22T12:25:26.981Z,978.75
2022-12-22T12:26:26.946Z,978.77
2022-12-22T12:27:26.945Z,978.78
2022-12-22T12:28:26.952Z,978.79